Time;durP1;ratioP1;P1;durP2;ratioP2;P2;SDS_P1;SDS_P2;PMS_P1;PMS_P2;Temp;Humidity;BMP_temperature;BMP_pressure;BME280_temperature;BME280_humidity;BME280_pressure;Samples;Min_cycle;Max_cycle;Signal;HPM_P1;HPM_P2
2022/05/31 00:00:27;;;;;;;5.22;3.13;;;;;;;12.34;98.80;98550.94;5021502;28;20060;-83
2022/05/31 00:02:55;;;;;;;5.03;3.13;;;;;;;12.32;98.77;98550.34;5043574;28;20029;-83
2022/05/31 00:05:22;;;;;;;5.10;3.25;;;;;;;12.29;97.83;98550.78;5042073;28;21504;-85
2022/05/31 00:07:47;;;;;;;6.07;3.85;;;;;;;12.23;97.53;98541.13;5040332;28;20032;-84
2022/05/31 00:10:14;;;;;;;3.65;2.75;;;;;;;12.25;97.86;98539.09;5044812;28;20055;-84
2022/05/31 00:12:41;;;;;;;3.42;2.90;;;;;;;12.23;98.45;98541.13;5038733;28;20029;-86
2022/05/31 00:15:09;;;;;;;3.85;2.78;;;;;;;12.18;99.34;98527.81;5037369;28;20500;-84
2022/05/31 00:17:35;;;;;;;6.22;2.88;;;;;;;12.20;99.52;98536.31;5042659;28;20104;-84
2022/05/31 00:20:02;;;;;;;3.50;2.60;;;;;;;12.24;99.88;98538.28;5044742;28;20034;-84
2022/05/31 00:22:28;;;;;;;3.15;2.85;;;;;;;12.28;99.94;98546.53;5041043;28;20029;-84
2022/05/31 00:24:54;;;;;;;3.22;2.90;;;;;;;12.25;99.86;98537.25;5040628;28;20060;-85
2022/05/31 00:27:23;;;;;;;4.57;3.20;;;;;;;12.31;99.05;98542.69;5041665;28;20029;-84
2022/05/31 00:29:49;;;;;;;5.35;3.17;;;;;;;12.32;99.66;98536.41;5041808;28;20037;-84
2022/05/31 00:32:21;;;;;;;4.35;3.22;;;;;;;12.33;99.54;98536.16;5037292;28;20037;-84
2022/05/31 00:34:50;;;;;;;4.10;3.15;;;;;;;12.25;100.00;98529.34;5038598;28;20051;-84
2022/05/31 00:37:16;;;;;;;4.25;3.10;;;;;;;12.25;99.46;98528.56;5037951;28;20048;-85
2022/05/31 00:39:42;;;;;;;4.82;3.20;;;;;;;12.27;99.71;98537.03;5050890;28;20029;-85
2022/05/31 00:42:18;;;;;;;5.82;3.08;;;;;;;12.26;100.00;98532.81;5048550;28;20497;-84
2022/05/31 00:44:44;;;;;;;3.55;3.10;;;;;;;12.25;100.00;98533.81;5044821;28;21205;-84
2022/05/31 00:47:33;;;;;;;3.20;2.95;;;;;;;12.30;99.99;98525.28;5045868;28;20486;-85
2022/05/31 00:50:06;;;;;;;3.10;2.80;;;;;;;12.33;100.00;98535.38;5045091;28;20032;-83
2022/05/31 00:52:36;;;;;;;4.13;3.05;;;;;;;12.33;100.00;98536.16;5043133;28;20032;-82
2022/05/31 00:55:08;;;;;;;7.65;2.85;;;;;;;12.30;100.00;98531.34;5047198;28;20124;-82
2022/05/31 00:57:36;;;;;;;3.60;3.08;;;;;;;12.19;100.00;98521.56;5046896;28;20051;-83
2022/05/31 01:00:12;;;;;;;5.28;3.00;;;;;;;12.24;100.00;98526.97;5048368;28;20036;-83
2022/05/31 01:02:40;;;;;;;4.35;2.80;;;;;;;12.20;100.00;98531.06;5045946;28;20024;-84
2022/05/31 01:05:08;;;;;;;3.22;2.80;;;;;;;12.21;100.00;98528.19;5042804;28;20103;-84
2022/05/31 01:07:34;;;;;;;5.63;2.85;;;;;;;12.27;100.00;98534.41;5044435;28;20030;-85
2022/05/31 01:10:00;;;;;;;3.15;2.72;;;;;;;12.27;100.00;98531.78;5045885;28;20041;-85
2022/05/31 01:12:26;;;;;;;4.18;3.78;;;;;;;12.24;100.00;98526.97;5044648;28;20162;-84
2022/05/31 01:14:53;;;;;;;4.60;3.47;;;;;;;12.18;100.00;98522.53;5045599;28;20073;-85
2022/05/31 01:17:22;;;;;;;3.97;3.40;;;;;;;12.23;100.00;98530.63;5050225;28;20042;-84
2022/05/31 01:19:56;;;;;;;5.38;3.75;;;;;;;12.18;100.00;98527.81;5030988;28;20033;-85
2022/05/31 01:22:36;;;;;;;5.28;3.58;;;;;;;12.15;100.00;98531.69;5047749;28;20104;-85
2022/05/31 01:25:21;;;;;;;6.18;3.65;;;;;;;12.17;100.00;98526.19;5046778;28;20035;-85
2022/05/31 01:28:09;;;;;;;5.47;3.72;;;;;;;12.23;100.00;98530.63;5050596;28;20037;-83
2022/05/31 01:30:43;;;;;;;6.53;4.40;;;;;;;12.18;100.00;98527.81;5047848;28;20045;-83
2022/05/31 01:33:18;;;;;;;6.25;3.83;;;;;;;12.22;100.00;98524.53;5048375;28;20032;-85
2022/05/31 01:35:43;;;;;;;7.78;4.97;;;;;;;12.12;100.00;98514.50;5046034;28;20048;-83
2022/05/31 01:38:18;;;;;;;8.40;4.32;;;;;;;12.18;100.00;98523.38;5048455;28;20029;-85
2022/05/31 01:41:04;;;;;;;6.63;3.75;;;;;;;12.19;100.00;98513.66;5050655;28;20036;-85
2022/05/31 01:43:30;;;;;;;3.90;3.55;;;;;;;12.14;100.00;98516.94;5047399;28;20025;-85
2022/05/31 01:46:01;;;;;;;4.93;3.65;;;;;;;12.16;100.00;98514.06;5048751;28;20028;-84
2022/05/31 01:48:30;;;;;;;5.60;4.27;;;;;;;12.12;100.00;98514.50;5043620;28;20129;-83
2022/05/31 01:50:56;;;;;;;4.43;3.65;;;;;;;12.11;100.00;98509.47;5044786;28;20036;-83
2022/05/31 01:53:22;;;;;;;5.20;3.83;;;;;;;12.07;100.00;98501.22;5047145;28;20190;-84
2022/05/31 01:55:48;;;;;;;5.70;3.55;;;;;;;12.11;100.00;98512.91;5040108;28;20479;-83
2022/05/31 01:58:24;;;;;;;7.20;4.07;;;;;;;12.05;100.00;98508.53;5044462;28;20056;-84
2022/05/31 02:00:50;;;;;;;4.75;3.42;;;;;;;12.10;100.00;98513.94;5047216;28;20044;-84
2022/05/31 02:03:18;;;;;;;5.78;4.03;;;;;;;12.10;100.00;98511.28;5043781;28;20029;-84
2022/05/31 02:05:52;;;;;;;3.88;3.42;;;;;;;12.02;100.00;98508.97;5040144;28;20029;-84
2022/05/31 02:08:19;;;;;;;;;;;;;;;12.01;100.00;98512.59;5027157;28;20025;-84
2022/05/31 02:10:47;;;;;;;7.05;3.20;;;;;;;11.95;100.00;98516.06;5043984;28;19920;-84
2022/05/31 02:13:13;;;;;;;6.47;3.55;;;;;;;11.95;100.00;98508.97;5043594;28;20112;-83
2022/05/31 02:15:40;;;;;;;6.90;3.45;;;;;;;12.03;100.00;98521.09;5040550;28;20040;-83
2022/05/31 02:18:06;;;;;;;6.45;3.85;;;;;;;12.03;100.00;98515.00;5045490;28;20372;-84
2022/05/31 02:20:32;;;;;;;6.15;3.60;;;;;;;12.05;100.00;98512.97;5043116;28;20033;-84
2022/05/31 02:22:57;;;;;;;3.42;3.13;;;;;;;12.05;100.00;98511.16;5041442;28;20075;-84
2022/05/31 02:25:23;;;;;;;6.72;3.83;;;;;;;12.08;100.00;98517.78;5046259;28;20415;-85
2022/05/31 02:27:51;;;;;;;5.25;3.58;;;;;;;12.08;100.00;98515.16;5040999;28;20427;-85
2022/05/31 02:30:18;;;;;;;5.15;3.30;;;;;;;11.89;100.00;98509.84;5041285;28;20112;-84
2022/05/31 02:32:44;;;;;;;5.43;3.60;;;;;;;11.81;100.00;98500.41;5040768;28;20060;-85
2022/05/31 02:35:10;;;;;;;10.25;4.30;;;;;;;11.65;100.00;98514.09;5042161;28;20037;-84
2022/05/31 02:37:37;;;;;;;8.40;4.32;;;;;;;11.41;100.00;98525.16;5042130;28;20043;-84
2022/05/31 02:40:05;;;;;;;5.38;3.88;;;;;;;11.47;100.00;98520.88;5042360;28;20025;-84
2022/05/31 02:42:32;;;;;;;5.10;3.88;;;;;;;11.28;100.00;98499.78;5043057;28;20124;-85
2022/05/31 02:44:57;;;;;;;4.72;4.20;;;;;;;11.32;100.00;98507.25;5041994;28;20435;-84
2022/05/31 02:47:23;;;;;;;6.95;4.05;;;;;;;11.31;100.00;98505.63;5042670;28;20053;-83
2022/05/31 02:49:49;;;;;;;7.22;4.47;;;;;;;11.15;100.00;98513.00;5044066;28;20033;-85
2022/05/31 02:52:16;;;;;;;7.47;4.85;;;;;;;11.33;100.00;98506.22;5044544;28;20037;-84
2022/05/31 02:54:43;;;;;;;8.98;5.47;;;;;;;11.18;100.00;98504.69;5041259;28;20095;-84
2022/05/31 02:57:08;;;;;;;8.50;4.80;;;;;;;11.27;100.00;98500.81;5043137;28;20032;-84
2022/05/31 02:59:34;;;;;;;8.85;5.15;;;;;;;11.39;100.00;98500.09;5039046;28;20028;-85
2022/05/31 03:02:00;;;;;;;8.15;4.68;;;;;;;11.49;100.00;98503.09;5046440;28;20035;-86
2022/05/31 03:04:26;;;;;;;8.90;5.10;;;;;;;11.28;100.00;98497.16;5042022;28;20486;-84
2022/05/31 03:06:51;;;;;;;10.25;5.63;;;;;;;11.28;100.00;98484.03;5042460;28;20074;-86
2022/05/31 03:09:17;;;;;;;7.75;5.13;;;;;;;11.40;100.00;98488.59;5041836;28;20479;-84
2022/05/31 03:11:50;;;;;;;9.25;5.60;;;;;;;11.20;100.00;98479.03;5024551;28;20040;-85
2022/05/31 03:14:24;;;;;;;11.32;5.35;;;;;;;11.33;100.00;98503.59;5043703;28;20032;-87
2022/05/31 03:17:14;;;;;;;14.27;5.80;;;;;;;11.14;100.00;98487.75;5042505;28;20033;-85
2022/05/31 03:19:46;;;;;;;10.63;5.82;;;;;;;11.13;100.00;98486.13;5042713;28;20081;-86
2022/05/31 03:22:17;;;;;;;8.98;5.82;;;;;;;11.27;100.00;98477.16;5041511;28;20082;-84
2022/05/31 03:24:50;;;;;;;10.32;6.40;;;;;;;11.25;100.00;98484.47;5039627;28;20143;-86
2022/05/31 03:27:19;;;;;;;10.68;6.30;;;;;;;11.16;100.00;98480.47;5040272;28;20049;-84
2022/05/31 03:29:47;;;;;;;9.63;5.97;;;;;;;11.22;100.00;98468.31;5045454;28;20110;-87
2022/05/31 03:32:15;;;;;;;8.23;5.95;;;;;;;11.27;100.00;98485.03;5041070;28;20490;-85
2022/05/31 03:34:41;;;;;;;8.70;5.97;;;;;;;11.15;100.00;98478.84;5042356;28;20488;-84
2022/05/31 03:37:07;;;;;;;11.05;6.32;;;;;;;11.12;100.00;98468.78;5041009;28;20376;-85
2022/05/31 03:39:33;;;;;;;9.43;6.80;;;;;;;11.17;100.00;98474.19;5038247;28;20025;-85
2022/05/31 03:41:58;;;;;;;12.93;7.07;;;;;;;11.21;100.00;98478.03;5044229;28;20033;-85
2022/05/31 03:44:24;;;;;;;9.50;6.82;;;;;;;11.03;100.00;98486.59;5024801;28;20036;-85
2022/05/31 03:46:49;;;;;;;11.43;7.32;;;;;;;10.91;100.00;98462.84;5046268;28;20056;-84
2022/05/31 03:49:16;;;;;;;15.27;7.38;;;;;;;11.03;100.00;98468.22;5045152;28;20078;-85
2022/05/31 03:51:42;;;;;;;14.32;8.25;;;;;;;11.06;100.00;98486.19;5026043;28;20028;-85
2022/05/31 03:54:07;;;;;;;15.02;8.50;;;;;;;11.04;100.00;98479.53;5040052;28;20110;-85
2022/05/31 03:56:35;;;;;;;14.77;9.45;;;;;;;10.89;100.00;98475.38;5043390;28;20029;-85
2022/05/31 03:59:01;;;;;;;12.93;8.77;;;;;;;10.96;100.00;98480.59;5039416;28;20035;-86
2022/05/31 04:01:26;;;;;;;12.65;8.30;;;;;;;11.08;100.00;98478.09;5038985;28;20041;-86
2022/05/31 04:04:05;;;;;;;14.25;9.23;;;;;;;11.00;100.00;98461.59;5040284;28;20035;-84
2022/05/31 04:06:51;;;;;;;16.65;8.63;;;;;;;11.20;100.00;98476.41;5042916;28;20435;-84
2022/05/31 04:09:20;;;;;;;18.10;8.88;;;;;;;11.37;100.00;98479.31;5035133;28;20029;-84
2022/05/31 04:11:59;;;;;;;17.00;9.15;;;;;;;11.28;100.00;98478.78;5042354;28;20391;-83
2022/05/31 04:14:25;;;;;;;12.80;8.32;;;;;;;11.32;100.00;98480.97;5040034;28;20044;-85
2022/05/31 04:16:59;;;;;;;15.68;8.77;;;;;;;11.37;100.00;98470.63;5041543;28;20028;-84
2022/05/31 04:19:34;;;;;;;12.52;8.43;;;;;;;11.40;100.00;98472.84;5040188;28;20029;-85
2022/05/31 04:22:01;;;;;;;12.60;8.13;;;;;;;11.49;100.00;98479.44;5039724;28;20033;-86
2022/05/31 04:24:32;;;;;;;15.40;8.73;;;;;;;11.53;100.00;98482.44;5041565;28;20036;-87
2022/05/31 04:27:02;;;;;;;15.07;8.57;;;;;;;11.56;100.00;98474.91;5040368;28;20029;-86
2022/05/31 04:29:43;;;;;;;11.35;8.13;;;;;;;11.58;100.00;98477.34;5041569;28;20391;-84
2022/05/31 04:32:09;;;;;;;13.25;8.93;;;;;;;11.70;100.00;98477.44;5037484;28;20048;-86
2022/05/31 04:34:35;;;;;;;12.90;8.60;;;;;;;11.71;100.00;98471.16;5038718;28;20041;-86
2022/05/31 04:37:06;;;;;;;14.88;8.48;;;;;;;11.77;100.00;98478.19;5037169;28;20522;-87
2022/05/31 04:39:45;;;;;;;14.70;8.85;;;;;;;11.74;100.00;98470.72;5043617;28;20029;-86
2022/05/31 04:42:11;;;;;;;15.45;9.02;;;;;;;11.71;100.00;98477.25;5038325;28;20057;-85
2022/05/31 04:44:58;;;;;;;13.90;9.38;;;;;;;11.64;100.00;98486.19;5041204;28;20064;-87
2022/05/31 04:47:24;;;;;;;15.07;10.05;;;;;;;11.65;100.00;98483.34;5038935;28;20498;-86
2022/05/31 04:50:15;;;;;;;23.17;10.40;;;;;;;11.57;100.00;98487.03;5041964;28;20515;-87
2022/05/31 04:53:06;;;;;;;15.73;9.80;;;;;;;11.75;100.00;98474.97;5043935;28;20124;-87
2022/05/31 04:55:58;;;;;;;15.05;10.45;;;;;;;11.66;100.00;98479.69;5040224;28;20049;-86
2022/05/31 04:58:47;;;;;;;16.88;10.20;;;;;;;11.88;100.00;98491.66;5040260;28;20041;-87
2022/05/31 05:01:16;;;;;;;16.70;10.15;;;;;;;11.93;100.00;98478.66;5039334;28;20463;-86
2022/05/31 05:03:44;;;;;;;17.05;10.07;;;;;;;12.08;100.00;98488.84;5042004;28;20060;-87
2022/05/31 05:06:29;;;;;;;12.82;8.80;;;;;;;12.28;100.00;98488.66;5041658;28;20503;-85
2022/05/31 05:09:10;;;;;;;15.75;9.10;;;;;;;12.30;100.00;98472.66;5043335;28;20037;-84
2022/05/31 05:11:56;;;;;;;14.77;9.02;;;;;;;12.41;100.00;98485.88;5037519;28;20063;-86
2022/05/31 05:14:50;;;;;;;12.70;9.40;;;;;;;12.33;100.00;98483.53;5042864;28;20037;-85
2022/05/31 05:17:24;;;;;;;14.20;8.88;;;;;;;12.29;100.00;98487.63;5041617;28;20029;-85
2022/05/31 05:19:54;;;;;;;12.73;8.95;;;;;;;12.45;100.00;98482.81;5041432;28;20476;-85
2022/05/31 05:22:40;;;;;;;11.95;9.65;;;;;;;12.46;100.00;98484.41;5038866;28;20046;-87
2022/05/31 05:25:08;;;;;;;14.88;9.27;;;;;;;12.34;100.00;98485.13;5045003;28;20471;-85
2022/05/31 05:27:34;;;;;;;12.75;8.50;;;;;;;12.43;100.00;98478.56;5042486;28;20029;-85
2022/05/31 05:33:13;;;;;;;;;;;;;;;12.26;100.00;98491.50;5044306;28;20116;-87
2022/05/31 05:35:57;;;;;;;13.52;8.75;;;;;;;12.19;100.00;98493.41;5044849;28;20323;-85
2022/05/31 05:38:43;;;;;;;11.00;9.10;;;;;;;12.30;100.00;98499.75;5041432;28;20044;-86
2022/05/31 05:41:11;;;;;;;14.65;8.75;;;;;;;12.23;100.00;98489.31;5047915;28;20026;-87
2022/05/31 05:43:38;;;;;;;16.38;9.90;;;;;;;12.13;100.00;98499.53;5043918;28;20026;-87
2022/05/31 05:46:18;;;;;;;14.55;9.98;;;;;;;12.25;100.00;98489.09;5025765;28;20045;-85
2022/05/31 05:49:05;;;;;;;16.92;11.60;;;;;;;12.00;100.00;98484.66;5043891;28;20410;-85
2022/05/31 05:51:33;;;;;;;15.77;10.65;;;;;;;12.06;100.00;98489.09;5045017;28;20100;-87
2022/05/31 05:54:04;;;;;;;16.63;10.65;;;;;;;11.97;100.00;98485.06;5041582;28;20055;-87
2022/05/31 05:56:43;;;;;;;15.73;11.30;;;;;;;12.18;100.00;98477.81;5046802;28;20502;-86
2022/05/31 05:59:14;;;;;;;16.45;11.35;;;;;;;12.27;100.00;98489.69;5043504;28;20497;-86
2022/05/31 06:02:00;;;;;;;18.02;11.75;;;;;;;12.42;100.00;98491.94;5048775;28;20064;-87
2022/05/31 06:04:26;;;;;;;19.25;12.27;;;;;;;12.42;100.00;98495.38;5041497;28;20033;-87
2022/05/31 06:07:57;;;;;;;19.50;12.80;;;;;;;12.50;100.00;98498.75;5046013;28;20056;-88
2022/05/31 06:11:07;;;;;;;18.85;11.98;;;;;;;12.65;100.00;98493.09;5058377;28;20056;-85
2022/05/31 06:13:51;;;;;;;;;;;;;;;12.59;100.00;98494.78;5041343;28;20598;-86
2022/05/31 06:16:24;;;;;;;17.92;11.80;;;;;;;12.51;100.00;98495.91;5043482;28;20282;-86
2022/05/31 06:19:05;;;;;;;20.27;12.32;;;;;;;12.35;100.00;98478.84;5047164;28;20080;-86
2022/05/31 06:22:02;;;;;;;16.85;11.23;;;;;;;12.48;100.00;98475.28;5043105;28;20072;-87
2022/05/31 06:24:33;;;;;;;17.10;11.80;;;;;;;12.55;100.00;98485.72;5042712;28;20033;-84
2022/05/31 06:30:08;;;;;;;16.95;11.40;;;;;;;12.59;100.00;98502.69;5036812;28;20040;-89
2022/05/31 06:32:55;;;;;;;15.45;11.00;;;;;;;12.46;100.00;98487.03;5036038;28;20078;-87
2022/05/31 06:35:21;;;;;;;15.50;10.63;;;;;;;12.21;100.00;98486.09;5022773;28;20511;-87
2022/05/31 06:38:17;;;;;;;14.65;10.02;;;;;;;12.36;100.00;98480.44;5043264;28;20160;-87
2022/05/31 06:41:16;;;;;;;18.65;10.68;;;;;;;12.36;100.00;98482.28;5040194;28;20041;-86
2022/05/31 06:44:16;;;;;;;13.02;9.77;;;;;;;12.32;100.00;98495.09;5037515;28;20038;-90
2022/05/31 06:46:43;;;;;;;18.88;11.07;;;;;;;12.20;100.00;98484.47;5061816;28;20076;-86
2022/05/31 06:49:43;;;;;;;15.77;10.00;;;;;;;12.38;100.00;98501.31;5024322;28;20115;-88
2022/05/31 06:58:35;;;;;;;14.50;10.07;;;;;;;12.57;100.00;98512.63;5048137;28;20071;-90
2022/05/31 07:01:04;;;;;;;19.50;11.48;;;;;;;12.46;100.00;98522.06;5024394;28;20040;-85
2022/05/31 07:03:40;;;;;;;16.52;11.93;;;;;;;12.50;100.00;98509.25;5041602;28;20047;-85
2022/05/31 07:06:05;;;;;;;22.92;12.38;;;;;;;12.67;100.00;98520.81;5023644;28;20052;-87
2022/05/31 07:08:31;;;;;;;21.17;13.32;;;;;;;12.59;100.00;98507.16;5040242;28;20095;-86
2022/05/31 07:11:01;;;;;;;18.88;11.68;;;;;;;12.80;100.00;98513.78;5040310;28;20029;-86
2022/05/31 07:13:28;;;;;;;17.52;11.35;;;;;;;13.06;100.00;98528.41;5038472;28;20033;-87
2022/05/31 07:15:54;;;;;;;11.30;8.35;;;;;;;12.80;100.00;98535.66;5042769;28;20036;-87
2022/05/31 07:18:23;;;;;;;13.48;8.60;;;;;;;12.18;100.00;98533.88;5023967;28;20128;-87
2022/05/31 07:20:50;;;;;;;13.52;8.07;;;;;;;12.43;100.00;98528.56;5043671;28;20707;-87
2022/05/31 07:23:21;;;;;;;11.85;6.70;;;;;;;12.33;100.00;98530.91;5042742;28;20527;-87
2022/05/31 07:25:52;;;;;;;10.98;6.68;;;;;;;12.37;100.00;98534.69;5041056;28;20033;-87
2022/05/31 07:28:26;;;;;;;11.32;6.93;;;;;;;12.42;100.00;98532.22;5044325;28;20060;-87
2022/05/31 07:30:53;;;;;;;9.40;6.60;;;;;;;12.08;100.00;98512.53;5014573;28;20034;-88
2022/05/31 07:33:22;;;;;;;14.60;8.10;;;;;;;12.12;100.00;98526.88;5052589;28;20051;-86
2022/05/31 07:36:11;;;;;;;15.55;9.27;;;;;;;12.20;100.00;98541.56;5045862;28;20045;-89
2022/05/31 07:38:36;;;;;;;19.48;9.90;;;;;;;11.70;100.00;98506.34;5043537;28;20021;-89
2022/05/31 07:41:24;;;;;;;15.30;8.77;;;;;;;12.12;100.00;98519.78;5041426;28;20121;-90
2022/05/31 07:43:50;;;;;;;18.45;10.30;;;;;;;12.40;100.00;98536.91;5042145;28;20537;-89
2022/05/31 07:50:32;;;;;;;16.88;7.47;;;;;;;12.31;100.00;98511.09;5034836;28;20056;-89
2022/05/31 07:53:20;;;;;;;12.07;6.72;;;;;;;12.76;100.00;98534.47;5043632;28;20040;-87
2022/05/31 07:56:08;;;;;;;7.25;4.93;;;;;;;12.82;100.00;98527.53;5030734;28;20044;-89
2022/05/31 07:58:52;;;;;;;9.45;5.47;;;;;;;13.00;100.00;98524.88;5035539;28;20506;-87
2022/05/31 08:01:39;;;;;;;7.03;4.82;;;;;;;13.18;100.00;98504.78;5036713;28;20487;-90
2022/05/31 08:04:05;;;;;;;7.15;5.18;;;;;;;13.48;100.00;98514.50;5020217;28;20029;-89
2022/05/31 08:06:46;;;;;;;7.35;4.82;;;;;;;13.75;100.00;98511.41;5039265;28;20079;-88
2022/05/31 08:09:14;;;;;;;6.60;4.75;;;;;;;14.15;100.00;98515.22;5038356;28;20048;-88
2022/05/31 08:11:39;;;;;;;8.57;4.57;;;;;;;14.18;100.00;98509.47;5041271;28;20468;-88
2022/05/31 08:14:31;;;;;;;5.07;3.47;;;;;;;14.83;100.00;98522.69;5036590;28;20076;-87
2022/05/31 08:16:56;;;;;;;5.47;3.95;;;;;;;15.19;100.00;98504.84;5029378;28;20053;-89
2022/05/31 08:19:32;;;;;;;7.55;4.80;;;;;;;15.28;100.00;98516.63;5046794;28;20083;-90
2022/05/31 08:21:58;;;;;;;12.50;8.07;;;;;;;15.62;100.00;98513.22;5028159;28;20029;-89
2022/05/31 08:24:26;;;;;;;10.43;6.70;;;;;;;15.98;100.00;98502.41;5043168;28;20025;-88
2022/05/31 08:26:52;;;;;;;8.98;6.60;;;;;;;15.54;100.00;98506.50;5038961;28;20033;-89
2022/05/31 08:29:40;;;;;;;7.72;5.22;;;;;;;16.04;100.00;98506.72;5047904;28;20045;-88
2022/05/31 08:32:07;;;;;;;8.45;5.47;;;;;;;16.60;100.00;98503.19;5021627;28;20484;-88
2022/05/31 08:34:38;;;;;;;7.60;4.88;;;;;;;16.65;100.00;98516.50;5035989;28;20507;-89
2022/05/31 08:37:06;;;;;;;6.25;4.45;;;;;;;16.51;100.00;98504.69;5037398;28;20092;-88
2022/05/31 08:39:36;;;;;;;4.60;3.60;;;;;;;17.25;100.00;98508.66;5035771;28;20025;-88
2022/05/31 08:42:09;;;;;;;6.20;4.82;;;;;;;16.99;100.00;98504.94;5040124;28;20026;-88
2022/05/31 08:44:39;;;;;;;4.65;4.03;;;;;;;17.40;100.00;98512.50;5047037;28;20037;-89
2022/05/31 08:47:25;;;;;;;6.38;4.13;;;;;;;17.75;100.00;98508.53;5025464;28;20439;-89
2022/05/31 08:53:22;;;;;;;4.68;3.67;;;;;;;18.21;96.10;98500.06;5049429;28;20942;-91
2022/05/31 08:58:55;;;;;;;4.45;4.05;;;;;;;17.41;98.83;98514.09;5046351;28;20120;-87
2022/05/31 09:01:34;;;;;;;3.80;3.50;;;;;;;17.67;92.30;98493.06;5038588;28;20231;-87
2022/05/31 09:04:29;;;;;;;3.70;3.40;;;;;;;18.15;97.26;98509.06;5039972;28;20044;-90
2022/05/31 09:07:46;;;;;;;3.80;3.50;;;;;;;17.39;95.17;98484.38;5050605;28;20045;-85
2022/05/31 09:10:38;;;;;;;4.00;3.60;;;;;;;17.59;94.01;98506.81;5050319;28;20036;-90
2022/05/31 09:13:46;;;;;;;3.53;3.33;;;;;;;17.74;94.32;98501.63;5044233;28;20108;-88
2022/05/31 09:16:37;;;;;;;3.22;3.00;;;;;;;17.69;92.17;98485.66;5026105;28;20028;-87
2022/05/31 09:19:15;;;;;;;3.22;3.03;;;;;;;18.15;94.62;98489.69;5051657;28;20537;-91
2022/05/31 09:25:41;;;;;;;2.88;2.67;;;;;;;18.49;88.57;98490.09;5065179;28;20056;-90
2022/05/31 09:28:38;;;;;;;2.60;2.50;;;;;;;18.37;85.96;98502.78;5027784;28;20052;-90
2022/05/31 09:31:20;;;;;;;2.78;2.67;;;;;;;18.07;88.17;98501.59;5030661;28;20092;-90
2022/05/31 09:34:11;;;;;;;2.55;2.45;;;;;;;17.67;86.08;98483.25;5047353;28;20115;-91
2022/05/31 09:36:50;;;;;;;2.60;2.30;;;;;;;17.72;84.90;98493.13;5045664;28;20514;-91
2022/05/31 09:39:40;;;;;;;2.75;2.60;;;;;;;17.67;84.92;98479.78;5051771;28;20421;-90
2022/05/31 09:42:21;;;;;;;2.50;2.40;;;;;;;17.90;86.51;98483.16;5025235;28;20087;-91
2022/05/31 09:44:59;;;;;;;2.55;2.40;;;;;;;18.06;85.42;98466.25;5024007;28;20041;-89
2022/05/31 09:47:31;;;;;;;3.00;2.80;;;;;;;18.34;85.28;98471.44;5040602;28;20120;-88
2022/05/31 09:50:28;;;;;;;3.80;3.42;;;;;;;18.32;85.59;98463.72;5039833;28;20398;-88
2022/05/31 09:59:24;;;;;;;7.88;6.20;;;;;;;17.80;85.24;98479.34;5037876;28;20060;-92
2022/05/31 10:01:51;;;;;;;7.57;6.40;;;;;;;18.10;86.41;98469.19;5038689;28;20025;-88
2022/05/31 10:04:31;;;;;;;7.05;6.35;;;;;;;18.06;82.39;98479.53;5050834;28;20399;-89
2022/05/31 10:07:01;;;;;;;8.65;7.10;;;;;;;18.01;84.50;98489.31;5038090;28;20029;-88
2022/05/31 10:09:34;;;;;;;9.15;8.27;;;;;;;17.36;86.28;98479.56;5044267;28;20038;-88
2022/05/31 10:12:19;;;;;;;17.40;15.13;;;;;;;17.23;88.88;98505.44;5031260;28;20549;-86
2022/05/31 10:14:51;;;;;;;13.20;11.80;;;;;;;16.31;93.04;98500.75;5032673;28;20171;-88
2022/05/31 10:17:37;;;;;;;7.53;6.82;;;;;;;15.76;95.49;98520.84;5048900;28;20025;-86
2022/05/31 10:20:12;;;;;;;5.85;5.35;;;;;;;15.35;100.00;98491.91;5029425;28;20044;-88
2022/05/31 10:22:49;;;;;;;5.35;4.32;;;;;;;15.60;100.00;98507.34;5045692;28;20032;-89
2022/05/31 10:25:35;;;;;;;4.22;3.83;;;;;;;15.73;100.00;98503.59;5048723;28;20052;-88
2022/05/31 10:28:37;;;;;;;3.78;3.53;;;;;;;15.43;96.42;98510.00;5049869;28;20051;-90
2022/05/31 10:31:21;;;;;;;3.40;3.20;;;;;;;15.19;94.68;98501.41;5041874;28;20083;-87
2022/05/31 10:34:00;;;;;;;3.42;3.13;;;;;;;16.59;95.37;98506.91;5043775;28;20040;-88
2022/05/31 10:36:52;;;;;;;6.40;3.13;;;;;;;16.38;91.04;98493.41;5029038;28;20096;-90
2022/05/31 10:39:38;;;;;;;3.30;3.10;;;;;;;15.63;91.81;98506.91;5049177;28;20151;-84
2022/05/31 10:42:11;;;;;;;3.42;3.10;;;;;;;15.76;91.28;98503.13;5032215;28;20033;-87
2022/05/31 10:44:50;;;;;;;3.20;3.00;;;;;;;15.56;89.52;98487.72;5032153;28;20029;-87
2022/05/31 10:47:17;;;;;;;3.38;3.17;;;;;;;15.82;89.22;98486.28;5025372;28;20052;-86
2022/05/31 10:49:46;;;;;;;3.75;3.45;;;;;;;15.66;89.91;98492.38;5043378;28;20037;-87
2022/05/31 10:52:50;;;;;;;3.28;3.08;;;;;;;16.07;89.98;98508.88;5041010;28;20033;-91
2022/05/31 10:55:32;;;;;;;3.70;3.40;;;;;;;16.82;91.68;98505.84;5050444;28;20356;-87
2022/05/31 10:58:27;;;;;;;3.63;3.33;;;;;;;17.26;90.22;98493.56;5035818;28;20052;-86
2022/05/31 11:00:59;;;;;;;4.20;3.80;;;;;;;17.48;89.26;98482.84;5029897;28;20554;-87
2022/05/31 11:04:03;;;;;;;4.20;3.90;;;;;;;16.77;86.51;98504.97;5043060;28;20032;-88
2022/05/31 11:07:02;;;;;;;3.90;3.60;;;;;;;16.59;86.82;98504.25;5049776;28;20028;-86
2022/05/31 11:12:48;;;;;;;3.50;3.20;;;;;;;16.41;85.00;98498.19;5046222;28;20055;-85
2022/05/31 11:15:14;;;;;;;2.70;2.60;;;;;;;16.92;82.36;98506.97;5038900;28;20033;-90
2022/05/31 11:17:52;;;;;;;3.08;2.88;;;;;;;16.98;82.35;98501.50;5025885;28;20055;-90
2022/05/31 11:20:41;;;;;;;2.88;2.67;;;;;;;17.03;83.07;98506.06;5028933;28;20048;-88
2022/05/31 11:23:42;;;;;;;3.22;2.90;;;;;;;17.13;82.63;98502.72;5040810;28;20036;-88
2022/05/31 11:26:42;;;;;;;2.80;2.60;;;;;;;17.49;81.23;98496.91;5023942;28;20480;-90
2022/05/31 11:29:26;;;;;;;2.90;2.70;;;;;;;17.44;84.16;98502.19;5025399;28;20154;-87
2022/05/31 11:32:19;;;;;;;2.80;2.60;;;;;;;17.77;79.28;98487.84;5045416;28;20029;-88
2022/05/31 11:34:56;;;;;;;3.67;2.80;;;;;;;18.52;82.99;98492.22;5037730;28;20041;-89
2022/05/31 11:37:43;;;;;;;3.10;2.83;;;;;;;18.79;82.48;98503.75;5040086;28;20387;-87
2022/05/31 11:40:34;;;;;;;2.88;2.70;;;;;;;17.99;82.88;98505.50;5040238;28;20029;-90
2022/05/31 11:43:13;;;;;;;3.88;2.90;;;;;;;17.63;80.89;98505.25;5036774;28;20057;-89
2022/05/31 11:45:49;;;;;;;3.95;3.60;;;;;;;17.38;84.30;98509.31;5029841;28;20525;-88
2022/05/31 11:48:23;;;;;;;3.22;3.03;;;;;;;18.40;84.06;98505.72;5041450;28;20091;-89
2022/05/31 11:51:25;;;;;;;3.00;2.80;;;;;;;18.34;83.26;98505.97;5041723;28;20045;-85
2022/05/31 11:54:17;;;;;;;2.80;2.60;;;;;;;18.48;78.95;98504.44;5033435;28;20123;-81
2022/05/31 11:57:22;;;;;;;2.72;2.63;;;;;;;18.29;77.25;98492.66;5038664;28;20514;-81
2022/05/31 12:00:18;;;;;;;2.80;2.60;;;;;;;18.07;77.04;98498.94;5040817;28;20037;-83
2022/05/31 12:02:56;;;;;;;2.80;2.60;;;;;;;17.96;76.69;98503.34;5041574;28;20055;-82
2022/05/31 12:05:43;;;;;;;2.58;2.47;;;;;;;18.61;74.78;98497.06;5037489;28;20456;-82
2022/05/31 12:08:23;;;;;;;2.67;2.58;;;;;;;18.32;76.58;98516.88;5023837;28;20072;-82
2022/05/31 12:11:15;;;;;;;2.90;2.70;;;;;;;18.58;75.53;98506.34;5039273;28;20028;-82
2022/05/31 12:14:12;;;;;;;3.13;2.80;;;;;;;18.47;74.31;98491.41;5039844;28;20044;-83
2022/05/31 12:16:58;;;;;;;2.95;2.75;;;;;;;18.30;73.88;98500.38;5041976;28;20446;-83
2022/05/31 12:19:41;;;;;;;2.70;2.50;;;;;;;18.65;73.11;98490.94;5040554;28;20558;-82
2022/05/31 12:22:37;;;;;;;2.90;2.70;;;;;;;18.78;71.75;98497.63;5041077;28;20045;-83
2022/05/31 12:25:24;;;;;;;5.68;3.50;;;;;;;18.08;73.72;98496.03;5023006;28;20044;-82
2022/05/31 12:28:03;;;;;;;3.60;3.40;;;;;;;17.89;74.36;98513.41;5039369;28;20064;-82
2022/05/31 12:30:36;;;;;;;3.78;3.30;;;;;;;16.86;79.22;98527.31;5034945;28;20041;-83
2022/05/31 12:33:46;;;;;;;3.30;3.00;;;;;;;16.42;84.55;98531.59;5036938;28;20056;-82
2022/05/31 12:36:24;;;;;;;3.00;2.75;;;;;;;15.59;86.52;98534.06;5037235;28;20053;-82
2022/05/31 12:39:28;;;;;;;2.78;2.58;;;;;;;15.93;86.46;98526.16;5039370;28;20081;-83
2022/05/31 12:41:53;;;;;;;2.85;2.50;;;;;;;16.16;86.09;98529.66;5024854;28;20033;-82